createdAt,value
2022-08-19T00:20:44.881Z,16.92
2022-08-19T00:23:11.124Z,21.80
2022-08-19T00:25:37.335Z,21.40
2022-08-19T00:28:03.708Z,19.80
2022-08-19T00:30:29.926Z,19.08
2022-08-19T00:32:56.160Z,19.92
2022-08-19T00:35:24.697Z,19.95
2022-08-19T00:37:50.878Z,18.00
2022-08-19T00:40:17.094Z,19.95
2022-08-19T00:42:43.357Z,20.17
2022-08-19T00:45:09.586Z,18.63
2022-08-19T00:47:35.781Z,17.42
2022-08-19T00:50:03.996Z,20.17
2022-08-19T00:52:30.255Z,18.13
2022-08-19T00:54:56.465Z,20.08
2022-08-19T00:57:22.706Z,20.35
2022-08-19T01:00:00.343Z,18.33
2022-08-19T01:02:28.346Z,18.77
2022-08-19T01:04:54.841Z,22.15
2022-08-19T01:07:21.129Z,17.40
2022-08-19T01:09:47.458Z,20.98
2022-08-19T01:12:13.894Z,18.67
2022-08-19T01:14:40.138Z,20.55
2022-08-19T01:17:06.351Z,19.40
2022-08-19T01:19:32.599Z,20.48
2022-08-19T01:22:14.562Z,20.58
2022-08-19T01:24:49.808Z,19.50
2022-08-19T01:27:16.300Z,20.48
2022-08-19T01:29:42.448Z,21.98
2022-08-19T01:32:32.192Z,24.20
2022-08-19T01:34:58.495Z,17.80
2022-08-19T01:37:24.851Z,20.98
2022-08-19T01:39:53.400Z,21.38
2022-08-19T01:42:19.637Z,21.65
2022-08-19T01:44:54.382Z,23.08
2022-08-19T01:47:20.556Z,20.60
2022-08-19T01:49:46.711Z,21.48
2022-08-19T01:52:12.885Z,25.60
2022-08-19T01:54:39.060Z,20.75
2022-08-19T01:57:05.258Z,22.65
2022-08-19T01:59:31.891Z,22.80
2022-08-19T02:01:58.103Z,19.98
2022-08-19T02:04:24.337Z,20.88
2022-08-19T02:06:50.545Z,24.13
2022-08-19T02:09:16.777Z,27.85
2022-08-19T02:11:42.950Z,23.65
2022-08-19T02:14:09.096Z,23.98
2022-08-19T02:16:35.302Z,22.10
2022-08-19T02:19:01.585Z,20.50
2022-08-19T02:21:27.904Z,23.27
2022-08-19T02:23:54.096Z,23.05
2022-08-19T02:26:20.296Z,19.83
2022-08-19T02:28:46.445Z,21.25
2022-08-19T02:31:12.633Z,21.08
2022-08-19T02:33:38.807Z,19.77
2022-08-19T02:36:04.969Z,22.10
2022-08-19T02:38:31.143Z,20.52
2022-08-19T02:40:57.293Z,20.00
2022-08-19T02:43:23.538Z,21.02
2022-08-19T02:45:50.275Z,23.80
2022-08-19T02:48:21.563Z,22.98
2022-08-19T02:50:53.431Z,22.65
2022-08-19T02:53:19.924Z,24.48
2022-08-19T02:55:46.477Z,21.58
2022-08-19T02:58:12.681Z,22.58
2022-08-19T03:00:39.652Z,22.90
2022-08-19T03:03:08.404Z,24.05
2022-08-19T03:05:48.365Z,21.15
2022-08-19T03:08:22.591Z,22.45
2022-08-19T03:10:48.759Z,27.45
2022-08-19T03:13:14.903Z,20.48
2022-08-19T03:15:41.081Z,26.45
2022-08-19T03:18:07.246Z,19.15
2022-08-19T03:20:34.840Z,21.98
2022-08-19T03:23:00.995Z,21.77
2022-08-19T03:25:27.151Z,21.45
2022-08-19T03:27:53.316Z,25.23
2022-08-19T03:30:20.495Z,25.92
2022-08-19T03:32:53.351Z,25.98
2022-08-19T03:35:23.108Z,25.17
2022-08-19T03:37:49.300Z,27.48
2022-08-19T03:40:16.713Z,22.45
2022-08-19T03:42:49.211Z,24.15
2022-08-19T03:45:15.758Z,22.70
2022-08-19T03:47:41.962Z,27.15
2022-08-19T03:50:08.152Z,26.00
2022-08-19T03:52:34.344Z,25.15
2022-08-19T03:55:00.504Z,26.48
2022-08-19T03:57:31.983Z,21.83
2022-08-19T04:00:12.932Z,25.10
2022-08-19T04:02:40.029Z,24.75
2022-08-19T04:05:06.209Z,24.52
2022-08-19T04:07:32.379Z,25.45
2022-08-19T04:09:58.552Z,22.27
2022-08-19T04:12:24.709Z,22.92
2022-08-19T04:14:50.903Z,21.83
2022-08-19T04:17:17.088Z,23.85
2022-08-19T04:19:43.260Z,22.23
2022-08-19T04:22:09.450Z,20.45
2022-08-19T04:24:35.631Z,21.15
2022-08-19T04:27:01.821Z,23.73
2022-08-19T04:29:28.023Z,22.83
2022-08-19T04:31:54.224Z,26.00
2022-08-19T04:34:20.383Z,27.70
2022-08-19T04:36:46.591Z,27.58
2022-08-19T04:39:12.787Z,20.65
2022-08-19T04:41:38.950Z,22.38
2022-08-19T04:44:05.140Z,21.20
2022-08-19T04:46:40.373Z,21.63
2022-08-19T04:49:17.546Z,22.23
2022-08-19T04:51:45.094Z,25.38
2022-08-19T04:54:11.267Z,22.25
2022-08-19T04:56:37.424Z,20.35
2022-08-19T04:59:03.627Z,21.98
2022-08-19T05:01:29.790Z,25.52
2022-08-19T05:03:56.751Z,21.08
2022-08-19T05:06:22.948Z,21.45
2022-08-19T05:08:49.356Z,22.25
2022-08-19T05:11:15.524Z,23.83
2022-08-19T05:13:41.914Z,22.98
2022-08-19T05:16:08.188Z,19.77
2022-08-19T05:18:34.335Z,29.92
2022-08-19T05:21:00.538Z,22.75
2022-08-19T05:23:26.696Z,24.02
2022-08-19T05:25:52.900Z,22.45
2022-08-19T05:28:19.090Z,21.75
2022-08-19T05:30:47.622Z,22.02
2022-08-19T05:33:13.951Z,19.50
2022-08-19T05:35:40.107Z,23.63
2022-08-19T05:38:06.294Z,20.80
2022-08-19T05:40:32.686Z,23.33
2022-08-19T05:42:58.851Z,21.98
2022-08-19T05:45:25.140Z,23.85
2022-08-19T05:47:51.311Z,19.45
2022-08-19T05:50:17.479Z,23.23
2022-08-19T05:52:49.999Z,19.73
2022-08-19T05:55:19.047Z,23.98
2022-08-19T05:57:45.248Z,23.83
2022-08-19T06:00:11.653Z,22.35
2022-08-19T06:02:37.900Z,26.80
2022-08-19T06:05:04.084Z,21.58
2022-08-19T06:07:30.454Z,22.00
2022-08-19T06:10:00.364Z,21.63
2022-08-19T06:12:36.848Z,19.55
2022-08-19T06:15:03.067Z,21.65
2022-08-19T06:17:29.265Z,26.27
2022-08-19T06:19:55.482Z,22.65
2022-08-19T06:22:21.637Z,22.05
2022-08-19T06:24:48.132Z,23.55
2022-08-19T06:27:14.373Z,22.48
2022-08-19T06:29:40.539Z,22.40
2022-08-19T06:32:06.738Z,22.15
2022-08-19T06:34:32.913Z,23.73
2022-08-19T06:36:59.086Z,24.83
2022-08-19T06:39:25.244Z,22.20
2022-08-19T06:41:53.382Z,18.67
2022-08-19T06:44:21.705Z,24.47
2022-08-19T06:46:53.630Z,18.70
2022-08-19T06:49:21.262Z,18.48
2022-08-19T06:51:47.409Z,16.52
2022-08-19T06:54:19.039Z,17.23
2022-08-19T06:56:45.948Z,19.50
2022-08-19T06:59:12.171Z,16.27
2022-08-19T07:01:38.336Z,15.45
2022-08-19T07:04:04.532Z,14.10
2022-08-19T07:06:44.277Z,13.95
2022-08-19T07:09:10.877Z,15.70
2022-08-19T07:11:38.397Z,14.30
2022-08-19T07:14:04.574Z,14.75
2022-08-19T07:16:30.784Z,16.05
2022-08-19T07:18:57.554Z,15.23
2022-08-19T07:21:24.111Z,19.35
2022-08-19T07:23:55.721Z,12.88
2022-08-19T07:26:27.689Z,15.07
2022-08-19T07:28:54.405Z,13.23
2022-08-19T07:31:23.186Z,12.57
2022-08-19T07:33:50.090Z,13.98
2022-08-19T07:36:19.527Z,15.65
2022-08-19T07:38:45.743Z,12.65
2022-08-19T07:41:11.895Z,14.88
2022-08-19T07:43:38.065Z,18.23
2022-08-19T07:46:04.319Z,14.23
2022-08-19T07:48:30.555Z,18.08
2022-08-19T07:50:56.765Z,13.13
2022-08-19T07:53:22.949Z,12.60
2022-08-19T07:55:49.135Z,11.32
2022-08-19T07:58:15.294Z,11.48
2022-08-19T08:00:41.483Z,11.50
2022-08-19T08:03:07.658Z,11.15
2022-08-19T08:05:35.634Z,14.20
2022-08-19T08:08:01.951Z,12.82
2022-08-19T08:10:28.173Z,11.32
2022-08-19T08:13:08.718Z,8.75
2022-08-19T08:15:41.349Z,13.07
2022-08-19T08:18:08.558Z,9.82
2022-08-19T08:20:35.333Z,10.30
2022-08-19T08:23:02.096Z,9.52
2022-08-19T08:25:28.265Z,14.80
2022-08-19T08:27:58.592Z,9.13
2022-08-19T08:30:24.790Z,12.77
2022-08-19T08:32:51.002Z,11.85
2022-08-19T08:35:17.253Z,10.20
2022-08-19T08:37:43.435Z,9.88
2022-08-19T08:40:13.070Z,12.45
2022-08-19T08:42:39.493Z,10.75
2022-08-19T08:45:05.682Z,12.13
2022-08-19T08:47:31.885Z,8.75
2022-08-19T08:49:58.862Z,7.68
2022-08-19T08:52:25.089Z,8.15
2022-08-19T08:54:58.490Z,7.35
2022-08-19T08:57:24.688Z,7.57
2022-08-19T08:59:50.870Z,7.88
2022-08-19T09:02:17.056Z,9.43
2022-08-19T09:04:43.249Z,9.57
2022-08-19T09:07:26.195Z,8.45
2022-08-19T09:09:56.236Z,6.78
2022-08-19T09:12:26.964Z,8.02
2022-08-19T09:17:19.556Z,8.73
2022-08-19T09:19:45.766Z,11.00
2022-08-19T09:22:12.078Z,8.32
2022-08-19T09:24:38.276Z,6.95
2022-08-19T09:27:18.216Z,9.85
2022-08-19T09:29:45.072Z,8.35
2022-08-19T09:32:26.246Z,8.80
2022-08-19T09:34:54.934Z,6.40
2022-08-19T09:37:21.128Z,6.90
2022-08-19T09:39:47.370Z,8.57
2022-08-19T09:42:16.314Z,8.20
2022-08-19T09:44:56.339Z,5.15
2022-08-19T09:47:22.549Z,7.07
2022-08-19T09:49:49.220Z,7.60
2022-08-19T09:52:15.372Z,9.18
2022-08-19T09:54:41.637Z,6.82
2022-08-19T09:57:10.434Z,8.27
2022-08-19T09:59:36.650Z,7.38
2022-08-19T10:02:03.950Z,8.55
2022-08-19T10:04:37.300Z,7.78
2022-08-19T10:07:03.502Z,6.50
2022-08-19T10:09:34.342Z,7.93
2022-08-19T10:12:00.908Z,6.63
2022-08-19T10:14:31.194Z,6.45
2022-08-19T10:16:59.177Z,8.00
2022-08-19T10:19:30.054Z,13.57
2022-08-19T10:22:00.775Z,9.07
2022-08-19T10:27:18.428Z,7.22
2022-08-19T10:29:46.475Z,10.27
2022-08-19T10:32:12.955Z,9.57
2022-08-19T10:34:48.657Z,8.02
2022-08-19T10:37:18.049Z,8.77
2022-08-19T10:39:50.333Z,9.10
2022-08-19T10:42:32.024Z,7.78
2022-08-19T10:44:58.260Z,9.98
2022-08-19T10:47:26.303Z,8.13
2022-08-19T10:49:59.467Z,7.00
2022-08-19T10:52:32.237Z,8.90
2022-08-19T10:54:58.943Z,9.38
2022-08-19T10:57:59.449Z,6.72
2022-08-19T11:00:20.547Z,6.90
2022-08-19T11:02:51.271Z,10.73
2022-08-19T11:07:44.850Z,8.88
2022-08-19T11:10:13.122Z,8.80
2022-08-19T11:12:39.532Z,14.80
2022-08-19T11:15:08.112Z,8.55
2022-08-19T11:17:34.473Z,10.50
2022-08-19T11:20:00.726Z,11.25
2022-08-19T11:22:35.372Z,12.13
2022-08-19T11:25:07.154Z,9.00
2022-08-19T11:27:33.400Z,10.55
2022-08-19T11:29:59.583Z,12.30
2022-08-19T11:32:25.844Z,9.77
2022-08-19T11:34:52.095Z,9.23
2022-08-19T11:37:19.165Z,11.35
2022-08-19T11:39:57.202Z,8.38
2022-08-19T11:42:23.508Z,12.25
2022-08-19T11:44:49.717Z,10.30
2022-08-19T11:47:18.973Z,10.13
2022-08-19T11:49:45.225Z,9.13
2022-08-19T11:52:11.404Z,10.10
2022-08-19T11:54:37.663Z,8.73
2022-08-19T11:57:03.878Z,9.55
2022-08-19T11:59:30.118Z,9.43
2022-08-19T12:01:56.390Z,8.95
2022-08-19T12:04:22.667Z,8.95
2022-08-19T12:06:48.997Z,9.35
2022-08-19T12:09:15.208Z,6.18
2022-08-19T12:11:46.551Z,6.75
2022-08-19T12:14:14.457Z,7.47
2022-08-19T12:16:48.603Z,8.13
2022-08-19T12:19:22.213Z,9.75
2022-08-19T12:21:48.918Z,11.93
2022-08-19T12:24:15.119Z,6.88
2022-08-19T12:26:52.554Z,6.88
2022-08-19T12:29:23.338Z,9.07
2022-08-19T12:31:50.253Z,7.80
2022-08-19T12:34:16.537Z,6.75
2022-08-19T12:36:42.836Z,8.25
2022-08-19T12:39:09.046Z,5.55
2022-08-19T12:41:37.439Z,5.93
2022-08-19T12:44:21.139Z,10.48
2022-08-19T12:46:55.862Z,6.05
2022-08-19T12:49:53.481Z,5.57
2022-08-19T12:52:08.341Z,7.05
2022-08-19T12:54:34.540Z,7.93
2022-08-19T12:57:00.747Z,9.18
2022-08-19T12:59:27.009Z,8.93
2022-08-19T13:01:53.205Z,7.78
2022-08-19T13:04:19.667Z,8.63
2022-08-19T13:06:45.916Z,6.95
2022-08-19T13:09:12.170Z,6.47
2022-08-19T13:11:42.823Z,7.07
2022-08-19T13:16:36.384Z,6.13
2022-08-19T13:19:02.599Z,4.90
2022-08-19T13:21:28.812Z,6.65
2022-08-19T13:23:55.833Z,6.00
2022-08-19T13:26:22.057Z,6.22
2022-08-19T13:28:48.296Z,5.78
2022-08-19T13:31:14.488Z,5.10
2022-08-19T13:33:41.799Z,5.53
2022-08-19T13:36:08.034Z,6.13
2022-08-19T13:38:34.307Z,7.40
2022-08-19T13:41:02.390Z,6.03
2022-08-19T13:43:36.506Z,6.18
2022-08-19T13:46:02.732Z,4.85
2022-08-19T13:48:28.902Z,8.05
2022-08-19T13:50:55.313Z,8.75
2022-08-19T13:53:25.869Z,7.38
2022-08-19T13:55:52.146Z,5.70
2022-08-19T13:58:19.553Z,5.68
2022-08-19T14:00:45.834Z,5.00
2022-08-19T14:03:12.204Z,7.18
2022-08-19T14:05:38.488Z,5.10
2022-08-19T14:08:04.767Z,7.85
2022-08-19T14:10:41.206Z,7.90
2022-08-19T14:13:08.597Z,4.78
2022-08-19T14:15:39.317Z,6.05
2022-08-19T14:18:05.560Z,6.03
2022-08-19T14:20:31.772Z,4.97
2022-08-19T14:22:58.126Z,4.75
2022-08-19T14:25:27.790Z,5.20
2022-08-19T14:27:54.266Z,6.43
2022-08-19T14:30:23.915Z,6.65
2022-08-19T14:32:50.167Z,7.45
2022-08-19T14:35:16.373Z,4.88
2022-08-19T14:37:50.623Z,5.05
2022-08-19T14:40:16.939Z,4.57
2022-08-19T14:42:43.236Z,6.22
2022-08-19T14:47:49.615Z,4.53
2022-08-19T14:50:18.087Z,4.68
2022-08-19T14:52:44.883Z,6.60
2022-08-19T14:55:12.481Z,5.80
2022-08-19T14:57:47.511Z,5.72
2022-08-19T15:00:13.719Z,4.30
2022-08-19T15:02:40.084Z,10.70
2022-08-19T15:05:06.384Z,4.30
2022-08-19T15:07:32.641Z,5.93
2022-08-19T15:10:00.868Z,5.55
2022-08-19T15:12:27.166Z,5.43
2022-08-19T15:14:55.980Z,4.82
2022-08-19T15:17:25.773Z,5.30
2022-08-19T15:20:09.200Z,8.73
2022-08-19T15:22:35.441Z,6.22
2022-08-19T15:25:02.772Z,4.65
2022-08-19T15:27:30.138Z,4.45
2022-08-19T15:30:00.949Z,7.38
2022-08-19T15:32:27.903Z,7.05
2022-08-19T15:34:54.132Z,5.43
2022-08-19T15:37:20.368Z,6.32
2022-08-19T15:39:49.397Z,4.90
2022-08-19T15:42:30.183Z,5.10
2022-08-19T15:45:00.660Z,8.97
2022-08-19T15:47:27.836Z,5.10
2022-08-19T15:50:01.058Z,8.38
2022-08-19T15:52:27.530Z,7.60
2022-08-19T15:54:53.779Z,4.78
2022-08-19T15:57:19.977Z,5.30
2022-08-19T15:59:47.404Z,8.30
2022-08-19T16:02:13.798Z,4.68
2022-08-19T16:04:40.814Z,5.85
2022-08-19T16:07:07.042Z,5.40
2022-08-19T16:09:33.268Z,7.10
2022-08-19T16:12:02.551Z,4.85
2022-08-19T16:14:29.102Z,5.93
2022-08-19T16:16:55.512Z,5.10
2022-08-19T16:19:21.725Z,5.20
2022-08-19T16:21:49.370Z,6.78
2022-08-19T16:24:15.575Z,4.40
2022-08-19T16:26:41.844Z,4.70
2022-08-19T16:29:08.984Z,5.75
2022-08-19T16:31:38.445Z,6.95
2022-08-19T16:34:04.709Z,8.57
2022-08-19T16:36:32.815Z,9.23
2022-08-19T16:38:59.171Z,6.50
2022-08-19T16:41:25.406Z,4.63
2022-08-19T16:43:51.622Z,8.73
2022-08-19T16:46:19.080Z,7.20
2022-08-19T16:48:47.223Z,5.15
2022-08-19T16:51:13.445Z,9.98
2022-08-19T16:53:39.680Z,4.63
2022-08-19T16:56:05.942Z,7.70
2022-08-19T16:58:32.173Z,4.85
2022-08-19T17:01:02.024Z,5.47
2022-08-19T17:03:36.419Z,6.18
2022-08-19T17:06:05.758Z,6.50
2022-08-19T17:13:45.291Z,4.80
2022-08-19T17:16:14.397Z,5.55
2022-08-19T17:18:40.596Z,6.90
2022-08-19T17:21:06.786Z,6.00
2022-08-19T17:23:42.344Z,8.82
2022-08-19T17:26:09.663Z,6.07
2022-08-19T17:28:43.351Z,5.07
2022-08-19T17:31:11.161Z,6.43
2022-08-19T17:33:41.106Z,5.82
2022-08-19T17:36:07.625Z,6.65
2022-08-19T17:38:33.870Z,5.10
2022-08-19T17:41:00.097Z,7.68
2022-08-19T17:43:32.364Z,7.20
2022-08-19T17:45:59.764Z,6.00
2022-08-19T17:48:26.222Z,6.50
2022-08-19T17:50:52.429Z,15.65
2022-08-19T17:53:18.672Z,9.15
2022-08-19T17:55:44.881Z,7.63
2022-08-19T17:58:14.365Z,5.68
2022-08-19T18:00:53.717Z,5.47
2022-08-19T18:03:20.568Z,10.23
2022-08-19T18:05:46.795Z,10.93
2022-08-19T18:08:13.015Z,8.43
2022-08-19T18:10:39.199Z,6.38
2022-08-19T18:13:10.818Z,11.98
2022-08-19T18:15:43.677Z,8.35
2022-08-19T18:18:15.196Z,7.95
2022-08-19T18:20:41.782Z,5.20
2022-08-19T18:23:45.279Z,7.75
2022-08-19T18:25:54.134Z,6.97
2022-08-19T18:28:20.333Z,6.68
2022-08-19T18:30:46.507Z,7.38
2022-08-19T18:33:12.675Z,10.93
2022-08-19T18:35:38.886Z,5.55
2022-08-19T18:38:05.057Z,9.07
2022-08-19T18:40:31.249Z,8.75
2022-08-19T18:42:57.417Z,6.72
2022-08-19T18:45:23.590Z,9.32
2022-08-19T18:47:49.781Z,8.10
2022-08-19T18:50:15.949Z,7.25
2022-08-19T18:52:42.882Z,9.20
2022-08-19T18:55:09.086Z,8.60
2022-08-19T18:57:35.243Z,6.55
2022-08-19T19:00:01.437Z,6.55
2022-08-19T19:02:27.600Z,11.32
2022-08-19T19:04:53.802Z,8.98
2022-08-19T19:07:20.005Z,9.38
2022-08-19T19:09:46.188Z,9.02
2022-08-19T19:12:12.402Z,9.07
2022-08-19T19:14:49.082Z,7.88
2022-08-19T19:17:15.896Z,9.70
2022-08-19T19:19:42.060Z,12.00
2022-08-19T19:22:08.234Z,7.30
2022-08-19T19:24:34.431Z,7.85
2022-08-19T19:27:00.630Z,7.55
2022-08-19T19:29:26.819Z,6.90
2022-08-19T19:31:53.778Z,6.40
2022-08-19T19:34:29.621Z,6.88
2022-08-19T19:36:56.172Z,7.55
2022-08-19T19:39:39.300Z,7.80
2022-08-19T19:42:08.532Z,7.18
2022-08-19T19:44:39.108Z,6.68
2022-08-19T19:47:05.640Z,9.02
2022-08-19T19:49:31.820Z,9.65
2022-08-19T19:51:58.019Z,8.55
2022-08-19T19:54:24.217Z,10.57
2022-08-19T19:56:50.436Z,9.68
2022-08-19T19:59:16.628Z,5.75
2022-08-19T20:01:44.316Z,10.32
2022-08-19T20:04:10.653Z,8.05
2022-08-19T20:06:36.862Z,9.82
2022-08-19T20:09:03.040Z,11.77
2022-08-19T20:11:29.281Z,11.07
2022-08-19T20:13:55.472Z,7.30
2022-08-19T20:16:21.636Z,9.40
2022-08-19T20:18:47.841Z,10.13
2022-08-19T20:21:14.032Z,8.57
2022-08-19T20:23:40.221Z,7.97
2022-08-19T20:26:06.536Z,9.55
2022-08-19T20:28:35.944Z,10.32
2022-08-19T20:31:03.318Z,8.55
2022-08-19T20:33:31.375Z,13.68
2022-08-19T20:35:57.565Z,10.07
2022-08-19T20:38:23.735Z,10.07
2022-08-19T20:40:49.915Z,10.18
2022-08-19T20:43:16.100Z,12.68
2022-08-19T20:45:42.305Z,9.13
2022-08-19T20:48:08.516Z,9.23
2022-08-19T20:50:34.697Z,12.40
2022-08-19T20:53:00.913Z,8.10
2022-08-19T20:55:29.966Z,8.32
2022-08-19T20:57:56.345Z,19.08
2022-08-19T21:00:22.655Z,8.43
2022-08-19T21:02:48.850Z,9.77
2022-08-19T21:05:15.129Z,9.70
2022-08-19T21:07:41.308Z,10.27
2022-08-19T21:10:07.487Z,8.63
2022-08-19T21:12:33.671Z,10.82
2022-08-19T21:14:59.847Z,9.90
2022-08-19T21:17:26.060Z,10.32
2022-08-19T21:19:52.232Z,10.07
2022-08-19T21:22:18.402Z,9.52
2022-08-19T21:24:44.633Z,11.80
2022-08-19T21:27:10.819Z,8.57
2022-08-19T21:29:37.026Z,10.88
2022-08-19T21:32:03.173Z,9.45
2022-08-19T21:34:29.388Z,10.88
2022-08-19T21:36:55.583Z,10.40
2022-08-19T21:39:21.785Z,8.95
2022-08-19T21:41:47.982Z,8.30
2022-08-19T21:44:14.161Z,11.32
2022-08-19T21:46:40.329Z,11.93
2022-08-19T21:49:06.517Z,11.10
2022-08-19T21:54:18.701Z,7.75
2022-08-19T21:56:44.881Z,10.00
2022-08-19T21:59:11.053Z,10.30
2022-08-19T22:01:37.228Z,11.68
2022-08-19T22:04:03.390Z,10.95
2022-08-19T22:06:29.583Z,9.07
2022-08-19T22:08:55.747Z,7.88
2022-08-19T22:11:21.920Z,15.68
2022-08-19T22:13:48.092Z,14.10
2022-08-19T22:16:14.243Z,9.85
2022-08-19T22:18:40.409Z,7.18
2022-08-19T22:21:11.369Z,10.90
2022-08-19T22:23:38.258Z,8.68
2022-08-19T22:26:04.409Z,11.52
2022-08-19T22:28:30.605Z,11.07
2022-08-19T22:30:56.754Z,7.60
2022-08-19T22:33:23.971Z,11.38
2022-08-19T22:35:50.163Z,12.70
2022-08-19T22:38:16.363Z,7.05
2022-08-19T22:40:42.550Z,8.27
2022-08-19T22:43:08.717Z,10.57
2022-08-19T22:45:34.934Z,10.52
2022-08-19T22:48:01.122Z,8.20
2022-08-19T22:50:27.308Z,8.30
2022-08-19T22:52:53.482Z,8.80
2022-08-19T22:55:19.647Z,9.52
2022-08-19T22:57:45.842Z,7.38
2022-08-19T23:00:12.003Z,12.38
2022-08-19T23:02:38.164Z,13.85
2022-08-19T23:05:04.346Z,7.60
2022-08-19T23:07:30.565Z,7.90
2022-08-19T23:09:56.755Z,10.25
2022-08-19T23:12:22.972Z,11.13
2022-08-19T23:14:49.140Z,7.60
2022-08-19T23:17:15.319Z,9.02
2022-08-19T23:19:46.620Z,9.02
2022-08-19T23:22:12.798Z,9.93
2022-08-19T23:24:38.991Z,6.88
2022-08-19T23:27:05.184Z,6.47
2022-08-19T23:29:31.363Z,7.68
2022-08-19T23:31:57.628Z,9.35
2022-08-19T23:34:23.777Z,13.63
2022-08-19T23:36:52.931Z,10.77
2022-08-19T23:39:19.228Z,11.70
2022-08-19T23:41:45.573Z,9.13
2022-08-19T23:44:14.906Z,13.38
2022-08-19T23:46:50.526Z,9.25
2022-08-19T23:49:21.620Z,15.23
2022-08-19T23:51:50.767Z,10.68
2022-08-19T23:54:16.963Z,11.70
2022-08-19T23:56:43.279Z,11.77
2022-08-19T23:59:09.475Z,9.23
